sensor_id;sensor_type;location;lat;lon;timestamp;temperature;humidity
45983;DHT22;31711;47.158;7.346;2023-03-12T00:00:44;4.30;99.90
45983;DHT22;31711;47.158;7.346;2023-03-12T00:03:10;4.30;99.90
45983;DHT22;31711;47.158;7.346;2023-03-12T00:05:40;4.20;99.90
45983;DHT22;31711;47.158;7.346;2023-03-12T00:08:07;4.30;99.90
45983;DHT22;31711;47.158;7.346;2023-03-12T00:10:34;4.40;99.90
45983;DHT22;31711;47.158;7.346;2023-03-12T00:13:00;4.50;99.90
45983;DHT22;31711;47.158;7.346;2023-03-12T00:15:27;4.50;99.90
45983;DHT22;31711;47.158;7.346;2023-03-12T00:17:53;4.50;99.90
45983;DHT22;31711;47.158;7.346;2023-03-12T00:20:19;4.50;99.90
45983;DHT22;31711;47.158;7.346;2023-03-12T00:22:45;4.50;99.90
45983;DHT22;31711;47.158;7.346;2023-03-12T00:25:13;4.40;99.90
45983;DHT22;31711;47.158;7.346;2023-03-12T00:27:40;4.40;99.90
45983;DHT22;31711;47.158;7.346;2023-03-12T00:30:07;4.60;99.90
45983;DHT22;31711;47.158;7.346;2023-03-12T00:32:34;4.60;99.90
45983;DHT22;31711;47.158;7.346;2023-03-12T00:35:00;4.70;99.90
45983;DHT22;31711;47.158;7.346;2023-03-12T00:37:26;4.70;99.90
45983;DHT22;31711;47.158;7.346;2023-03-12T00:39:52;4.50;99.90
45983;DHT22;31711;47.158;7.346;2023-03-12T00:42:18;4.40;99.90
45983;DHT22;31711;47.158;7.346;2023-03-12T00:44:44;4.40;99.90
45983;DHT22;31711;47.158;7.346;2023-03-12T00:47:11;4.40;99.90
45983;DHT22;31711;47.158;7.346;2023-03-12T00:49:37;4.30;99.90
45983;DHT22;31711;47.158;7.346;2023-03-12T00:52:03;4.20;99.90
45983;DHT22;31711;47.158;7.346;2023-03-12T00:54:29;4.30;99.90
45983;DHT22;31711;47.158;7.346;2023-03-12T00:56:56;4.20;99.90
45983;DHT22;31711;47.158;7.346;2023-03-12T00:59:22;4.20;99.90
45983;DHT22;31711;47.158;7.346;2023-03-12T01:01:48;4.20;99.90
45983;DHT22;31711;47.158;7.346;2023-03-12T01:04:14;4.20;99.90
45983;DHT22;31711;47.158;7.346;2023-03-12T01:06:42;4.20;99.90
45983;DHT22;31711;47.158;7.346;2023-03-12T01:09:08;4.30;99.90
45983;DHT22;31711;47.158;7.346;2023-03-12T01:11:36;4.40;99.90
45983;DHT22;31711;47.158;7.346;2023-03-12T01:14:04;4.50;99.90
45983;DHT22;31711;47.158;7.346;2023-03-12T01:16:31;4.50;99.90
45983;DHT22;31711;47.158;7.346;2023-03-12T01:18:58;4.50;99.90
45983;DHT22;31711;47.158;7.346;2023-03-12T01:21:25;4.40;99.90
45983;DHT22;31711;47.158;7.346;2023-03-12T01:23:53;4.50;99.90
45983;DHT22;31711;47.158;7.346;2023-03-12T01:26:19;4.50;99.90
45983;DHT22;31711;47.158;7.346;2023-03-12T01:28:45;4.40;99.90
45983;DHT22;31711;47.158;7.346;2023-03-12T01:31:14;4.30;99.90
45983;DHT22;31711;47.158;7.346;2023-03-12T01:33:40;4.20;99.90
45983;DHT22;31711;47.158;7.346;2023-03-12T01:36:19;4.20;99.90
45983;DHT22;31711;47.158;7.346;2023-03-12T01:38:46;4.30;99.90
45983;DHT22;31711;47.158;7.346;2023-03-12T01:41:12;4.40;99.90
45983;DHT22;31711;47.158;7.346;2023-03-12T01:43:38;4.40;99.90
45983;DHT22;31711;47.158;7.346;2023-03-12T01:49:02;4.40;99.90
45983;DHT22;31711;47.158;7.346;2023-03-12T01:51:42;4.50;99.90
45983;DHT22;31711;47.158;7.346;2023-03-12T01:54:18;4.40;99.90
45983;DHT22;31711;47.158;7.346;2023-03-12T01:56:45;4.40;99.90
45983;DHT22;31711;47.158;7.346;2023-03-12T01:59:21;4.50;99.90
45983;DHT22;31711;47.158;7.346;2023-03-12T02:01:48;4.50;99.90
45983;DHT22;31711;47.158;7.346;2023-03-12T02:04:20;4.50;99.90
45983;DHT22;31711;47.158;7.346;2023-03-12T02:07:04;4.50;99.90
45983;DHT22;31711;47.158;7.346;2023-03-12T02:09:37;4.60;99.90
45983;DHT22;31711;47.158;7.346;2023-03-12T02:12:04;4.60;99.90
45983;DHT22;31711;47.158;7.346;2023-03-12T02:14:30;4.70;99.90
45983;DHT22;31711;47.158;7.346;2023-03-12T02:16:57;4.50;99.90
45983;DHT22;31711;47.158;7.346;2023-03-12T02:20:31;4.40;99.90
45983;DHT22;31711;47.158;7.346;2023-03-12T02:22:34;4.20;99.90
45983;DHT22;31711;47.158;7.346;2023-03-12T02:27:41;4.10;99.90
45983;DHT22;31711;47.158;7.346;2023-03-12T02:30:08;4.10;99.90
45983;DHT22;31711;47.158;7.346;2023-03-12T02:32:37;4.10;99.90
45983;DHT22;31711;47.158;7.346;2023-03-12T02:35:05;4.10;99.90
45983;DHT22;31711;47.158;7.346;2023-03-12T02:37:31;4.20;99.90
45983;DHT22;31711;47.158;7.346;2023-03-12T02:40:07;4.30;99.90
45983;DHT22;31711;47.158;7.346;2023-03-12T02:42:38;4.40;99.90
45983;DHT22;31711;47.158;7.346;2023-03-12T02:45:04;4.30;99.90
45983;DHT22;31711;47.158;7.346;2023-03-12T02:47:31;4.40;99.90
45983;DHT22;31711;47.158;7.346;2023-03-12T02:49:56;4.50;99.90
45983;DHT22;31711;47.158;7.346;2023-03-12T02:52:23;4.50;99.90
45983;DHT22;31711;47.158;7.346;2023-03-12T02:54:49;4.50;99.90
45983;DHT22;31711;47.158;7.346;2023-03-12T02:57:14;4.50;99.90
45983;DHT22;31711;47.158;7.346;2023-03-12T02:59:40;4.50;99.90
45983;DHT22;31711;47.158;7.346;2023-03-12T03:02:06;4.50;99.90
45983;DHT22;31711;47.158;7.346;2023-03-12T03:04:34;4.60;99.90
45983;DHT22;31711;47.158;7.346;2023-03-12T03:07:00;4.60;99.90
45983;DHT22;31711;47.158;7.346;2023-03-12T03:09:26;4.70;99.90
45983;DHT22;31711;47.158;7.346;2023-03-12T03:11:52;4.70;99.90
45983;DHT22;31711;47.158;7.346;2023-03-12T03:14:18;4.80;99.90
45983;DHT22;31711;47.158;7.346;2023-03-12T03:16:44;4.80;99.90
45983;DHT22;31711;47.158;7.346;2023-03-12T03:19:10;4.80;99.90
45983;DHT22;31711;47.158;7.346;2023-03-12T03:21:36;4.70;99.90
45983;DHT22;31711;47.158;7.346;2023-03-12T03:24:03;4.70;99.90
45983;DHT22;31711;47.158;7.346;2023-03-12T03:26:29;4.60;99.90
45983;DHT22;31711;47.158;7.346;2023-03-12T03:28:55;4.60;99.90
45983;DHT22;31711;47.158;7.346;2023-03-12T03:31:21;4.60;99.90
45983;DHT22;31711;47.158;7.346;2023-03-12T03:33:48;4.60;99.90
45983;DHT22;31711;47.158;7.346;2023-03-12T03:36:14;4.60;99.90
45983;DHT22;31711;47.158;7.346;2023-03-12T03:38:41;4.40;99.90
45983;DHT22;31711;47.158;7.346;2023-03-12T03:41:08;4.40;99.90
45983;DHT22;31711;47.158;7.346;2023-03-12T03:43:34;4.40;99.90
45983;DHT22;31711;47.158;7.346;2023-03-12T03:46:03;4.50;99.90
45983;DHT22;31711;47.158;7.346;2023-03-12T03:48:29;4.50;99.90
45983;DHT22;31711;47.158;7.346;2023-03-12T03:51:00;4.60;99.90
45983;DHT22;31711;47.158;7.346;2023-03-12T03:53:26;4.60;99.90
45983;DHT22;31711;47.158;7.346;2023-03-12T03:55:52;4.60;99.90
45983;DHT22;31711;47.158;7.346;2023-03-12T03:58:18;4.70;99.90
45983;DHT22;31711;47.158;7.346;2023-03-12T04:00:45;4.70;99.90
45983;DHT22;31711;47.158;7.346;2023-03-12T04:03:12;4.70;99.90
45983;DHT22;31711;47.158;7.346;2023-03-12T04:05:39;4.80;99.90
45983;DHT22;31711;47.158;7.346;2023-03-12T04:08:10;4.80;99.90
45983;DHT22;31711;47.158;7.346;2023-03-12T04:10:37;4.70;99.90
45983;DHT22;31711;47.158;7.346;2023-03-12T04:13:03;4.70;99.90
45983;DHT22;31711;47.158;7.346;2023-03-12T04:15:29;4.60;99.90
45983;DHT22;31711;47.158;7.346;2023-03-12T04:17:54;4.70;99.90
45983;DHT22;31711;47.158;7.346;2023-03-12T04:20:21;4.70;99.90
45983;DHT22;31711;47.158;7.346;2023-03-12T04:22:47;4.70;99.90
45983;DHT22;31711;47.158;7.346;2023-03-12T04:25:12;4.80;99.90
45983;DHT22;31711;47.158;7.346;2023-03-12T04:27:38;4.80;99.90
45983;DHT22;31711;47.158;7.346;2023-03-12T04:30:05;4.70;99.90
45983;DHT22;31711;47.158;7.346;2023-03-12T04:32:31;4.70;99.90
45983;DHT22;31711;47.158;7.346;2023-03-12T04:34:57;4.70;99.90
45983;DHT22;31711;47.158;7.346;2023-03-12T04:37:23;4.70;99.90
45983;DHT22;31711;47.158;7.346;2023-03-12T04:39:49;4.70;99.90
45983;DHT22;31711;47.158;7.346;2023-03-12T04:42:15;4.70;99.90
45983;DHT22;31711;47.158;7.346;2023-03-12T04:44:41;4.70;99.90
45983;DHT22;31711;47.158;7.346;2023-03-12T04:47:07;4.80;99.90
45983;DHT22;31711;47.158;7.346;2023-03-12T04:49:32;4.80;99.90
45983;DHT22;31711;47.158;7.346;2023-03-12T04:51:58;4.70;99.90
45983;DHT22;31711;47.158;7.346;2023-03-12T04:54:24;4.90;99.90
45983;DHT22;31711;47.158;7.346;2023-03-12T04:56:50;5.00;99.90
45983;DHT22;31711;47.158;7.346;2023-03-12T04:59:16;5.00;99.90
45983;DHT22;31711;47.158;7.346;2023-03-12T05:01:42;5.00;99.90
45983;DHT22;31711;47.158;7.346;2023-03-12T05:04:08;4.80;99.90
45983;DHT22;31711;47.158;7.346;2023-03-12T05:06:34;4.70;99.90
45983;DHT22;31711;47.158;7.346;2023-03-12T05:09:00;4.70;99.90
45983;DHT22;31711;47.158;7.346;2023-03-12T05:11:26;4.80;99.90
45983;DHT22;31711;47.158;7.346;2023-03-12T05:13:52;4.70;99.90
45983;DHT22;31711;47.158;7.346;2023-03-12T05:16:19;4.60;99.90
45983;DHT22;31711;47.158;7.346;2023-03-12T05:18:45;4.60;99.90
45983;DHT22;31711;47.158;7.346;2023-03-12T05:21:15;4.60;99.90
45983;DHT22;31711;47.158;7.346;2023-03-12T05:23:41;4.60;99.90
45983;DHT22;31711;47.158;7.346;2023-03-12T05:26:29;4.70;99.90
45983;DHT22;31711;47.158;7.346;2023-03-12T05:28:57;4.60;99.90
45983;DHT22;31711;47.158;7.346;2023-03-12T05:31:23;4.60;99.90
45983;DHT22;31711;47.158;7.346;2023-03-12T05:33:50;4.70;99.90
45983;DHT22;31711;47.158;7.346;2023-03-12T05:36:16;4.60;99.90
45983;DHT22;31711;47.158;7.346;2023-03-12T05:38:43;4.60;99.90
45983;DHT22;31711;47.158;7.346;2023-03-12T05:41:20;4.60;99.90
45983;DHT22;31711;47.158;7.346;2023-03-12T05:43:46;4.70;99.90
45983;DHT22;31711;47.158;7.346;2023-03-12T05:46:13;4.70;99.90
45983;DHT22;31711;47.158;7.346;2023-03-12T05:48:39;4.70;99.90
45983;DHT22;31711;47.158;7.346;2023-03-12T05:51:05;4.70;99.90
45983;DHT22;31711;47.158;7.346;2023-03-12T05:53:31;4.60;99.90
45983;DHT22;31711;47.158;7.346;2023-03-12T05:56:05;4.50;99.90
45983;DHT22;31711;47.158;7.346;2023-03-12T05:58:32;4.50;99.90
45983;DHT22;31711;47.158;7.346;2023-03-12T06:00:59;4.60;99.90
45983;DHT22;31711;47.158;7.346;2023-03-12T06:03:25;4.60;99.90
45983;DHT22;31711;47.158;7.346;2023-03-12T06:05:51;4.70;99.90
45983;DHT22;31711;47.158;7.346;2023-03-12T06:08:21;4.70;99.90
45983;DHT22;31711;47.158;7.346;2023-03-12T06:10:50;4.70;99.90
45983;DHT22;31711;47.158;7.346;2023-03-12T06:13:16;4.70;99.90
45983;DHT22;31711;47.158;7.346;2023-03-12T06:15:42;4.70;99.90
45983;DHT22;31711;47.158;7.346;2023-03-12T06:18:08;4.70;99.90
45983;DHT22;31711;47.158;7.346;2023-03-12T06:20:34;4.70;99.90
45983;DHT22;31711;47.158;7.346;2023-03-12T06:23:00;4.80;99.90
45983;DHT22;31711;47.158;7.346;2023-03-12T06:25:26;4.90;99.90
45983;DHT22;31711;47.158;7.346;2023-03-12T06:27:52;5.00;99.90
45983;DHT22;31711;47.158;7.346;2023-03-12T06:30:18;5.00;99.90
45983;DHT22;31711;47.158;7.346;2023-03-12T06:32:44;5.10;99.90
45983;DHT22;31711;47.158;7.346;2023-03-12T06:35:10;5.10;99.90
45983;DHT22;31711;47.158;7.346;2023-03-12T06:37:36;5.20;99.90
45983;DHT22;31711;47.158;7.346;2023-03-12T06:40:03;5.20;99.90
45983;DHT22;31711;47.158;7.346;2023-03-12T06:42:29;5.30;99.90
45983;DHT22;31711;47.158;7.346;2023-03-12T06:44:57;5.40;99.90
45983;DHT22;31711;47.158;7.346;2023-03-12T06:47:23;5.40;99.90
45983;DHT22;31711;47.158;7.346;2023-03-12T06:49:49;5.50;99.90
45983;DHT22;31711;47.158;7.346;2023-03-12T06:52:15;5.50;99.90
45983;DHT22;31711;47.158;7.346;2023-03-12T06:54:41;5.40;99.90
45983;DHT22;31711;47.158;7.346;2023-03-12T06:57:07;5.40;99.90
45983;DHT22;31711;47.158;7.346;2023-03-12T06:59:33;5.40;99.90
45983;DHT22;31711;47.158;7.346;2023-03-12T07:01:59;5.50;99.90
45983;DHT22;31711;47.158;7.346;2023-03-12T07:04:25;5.50;99.90
45983;DHT22;31711;47.158;7.346;2023-03-12T07:06:51;5.60;99.90
45983;DHT22;31711;47.158;7.346;2023-03-12T07:09:17;5.60;99.90
45983;DHT22;31711;47.158;7.346;2023-03-12T07:11:43;5.60;99.90
45983;DHT22;31711;47.158;7.346;2023-03-12T07:14:10;5.60;99.90
45983;DHT22;31711;47.158;7.346;2023-03-12T07:16:36;5.70;99.90
45983;DHT22;31711;47.158;7.346;2023-03-12T07:19:02;5.80;99.90
45983;DHT22;31711;47.158;7.346;2023-03-12T07:21:29;5.80;99.90
45983;DHT22;31711;47.158;7.346;2023-03-12T07:23:56;5.90;99.90
45983;DHT22;31711;47.158;7.346;2023-03-12T07:26:22;6.00;99.90
45983;DHT22;31711;47.158;7.346;2023-03-12T07:28:48;6.00;99.90
45983;DHT22;31711;47.158;7.346;2023-03-12T07:31:14;5.90;99.90
45983;DHT22;31711;47.158;7.346;2023-03-12T07:33:40;5.90;99.90
45983;DHT22;31711;47.158;7.346;2023-03-12T07:36:07;6.00;99.90
45983;DHT22;31711;47.158;7.346;2023-03-12T07:38:33;6.20;99.90
45983;DHT22;31711;47.158;7.346;2023-03-12T07:40:58;6.20;99.90
45983;DHT22;31711;47.158;7.346;2023-03-12T07:43:25;6.40;99.90
45983;DHT22;31711;47.158;7.346;2023-03-12T07:45:52;6.40;99.90
45983;DHT22;31711;47.158;7.346;2023-03-12T07:48:18;6.40;99.90
45983;DHT22;31711;47.158;7.346;2023-03-12T07:50:44;6.60;99.90
45983;DHT22;31711;47.158;7.346;2023-03-12T07:53:11;6.80;99.90
45983;DHT22;31711;47.158;7.346;2023-03-12T07:55:37;7.00;99.90
45983;DHT22;31711;47.158;7.346;2023-03-12T07:58:03;7.10;99.90
45983;DHT22;31711;47.158;7.346;2023-03-12T08:00:29;7.10;99.90
45983;DHT22;31711;47.158;7.346;2023-03-12T08:02:55;7.10;99.90
45983;DHT22;31711;47.158;7.346;2023-03-12T08:05:22;7.20;99.90
45983;DHT22;31711;47.158;7.346;2023-03-12T08:07:53;7.20;99.90
45983;DHT22;31711;47.158;7.346;2023-03-12T08:10:19;7.20;99.90
45983;DHT22;31711;47.158;7.346;2023-03-12T08:12:46;7.30;99.90
45983;DHT22;31711;47.158;7.346;2023-03-12T08:15:12;7.60;99.90
45983;DHT22;31711;47.158;7.346;2023-03-12T08:17:39;7.80;99.90
45983;DHT22;31711;47.158;7.346;2023-03-12T08:20:06;7.60;99.90
45983;DHT22;31711;47.158;7.346;2023-03-12T08:22:35;7.60;99.90
45983;DHT22;31711;47.158;7.346;2023-03-12T08:25:02;7.50;99.90
45983;DHT22;31711;47.158;7.346;2023-03-12T08:27:28;7.50;99.90
45983;DHT22;31711;47.158;7.346;2023-03-12T08:29:55;7.20;99.90
45983;DHT22;31711;47.158;7.346;2023-03-12T08:32:21;7.10;99.90
45983;DHT22;31711;47.158;7.346;2023-03-12T08:34:47;7.20;99.90
45983;DHT22;31711;47.158;7.346;2023-03-12T08:37:13;7.50;99.90
45983;DHT22;31711;47.158;7.346;2023-03-12T08:39:39;7.70;99.90
45983;DHT22;31711;47.158;7.346;2023-03-12T08:42:05;7.80;99.90
45983;DHT22;31711;47.158;7.346;2023-03-12T08:44:32;7.80;99.90
45983;DHT22;31711;47.158;7.346;2023-03-12T08:46:58;7.80;99.90
45983;DHT22;31711;47.158;7.346;2023-03-12T08:49:24;7.70;99.90
45983;DHT22;31711;47.158;7.346;2023-03-12T08:51:50;7.90;99.90
45983;DHT22;31711;47.158;7.346;2023-03-12T08:54:17;8.00;99.90
45983;DHT22;31711;47.158;7.346;2023-03-12T08:56:43;8.00;99.90
45983;DHT22;31711;47.158;7.346;2023-03-12T08:59:12;8.20;99.90
45983;DHT22;31711;47.158;7.346;2023-03-12T09:01:38;8.40;99.90
45983;DHT22;31711;47.158;7.346;2023-03-12T09:04:05;8.30;99.90
45983;DHT22;31711;47.158;7.346;2023-03-12T09:06:31;8.30;99.90
45983;DHT22;31711;47.158;7.346;2023-03-12T09:09:00;8.40;99.90
45983;DHT22;31711;47.158;7.346;2023-03-12T09:11:33;8.40;99.90
45983;DHT22;31711;47.158;7.346;2023-03-12T09:14:00;8.40;99.90
45983;DHT22;31711;47.158;7.346;2023-03-12T09:16:27;8.30;99.90
45983;DHT22;31711;47.158;7.346;2023-03-12T09:18:53;8.20;99.90
45983;DHT22;31711;47.158;7.346;2023-03-12T09:21:20;8.10;99.90
45983;DHT22;31711;47.158;7.346;2023-03-12T09:23:46;8.10;99.90
45983;DHT22;31711;47.158;7.346;2023-03-12T09:26:12;8.10;99.90
45983;DHT22;31711;47.158;7.346;2023-03-12T09:28:38;8.20;99.90
45983;DHT22;31711;47.158;7.346;2023-03-12T09:31:05;8.20;99.90
45983;DHT22;31711;47.158;7.346;2023-03-12T09:33:32;8.30;99.90
45983;DHT22;31711;47.158;7.346;2023-03-12T09:36:01;8.30;99.90
45983;DHT22;31711;47.158;7.346;2023-03-12T09:38:27;8.30;99.90
45983;DHT22;31711;47.158;7.346;2023-03-12T09:40:53;8.30;99.90
45983;DHT22;31711;47.158;7.346;2023-03-12T09:43:35;8.40;99.90
45983;DHT22;31711;47.158;7.346;2023-03-12T09:46:03;8.40;99.90
45983;DHT22;31711;47.158;7.346;2023-03-12T09:48:36;8.40;99.90
45983;DHT22;31711;47.158;7.346;2023-03-12T09:53:44;8.50;99.90
45983;DHT22;31711;47.158;7.346;2023-03-12T09:56:16;8.40;99.90
45983;DHT22;31711;47.158;7.346;2023-03-12T09:58:43;8.50;99.90
45983;DHT22;31711;47.158;7.346;2023-03-12T10:01:33;8.50;99.90
45983;DHT22;31711;47.158;7.346;2023-03-12T10:07:00;8.70;99.90
45983;DHT22;31711;47.158;7.346;2023-03-12T10:12:25;9.00;99.90
45983;DHT22;31711;47.158;7.346;2023-03-12T10:15:22;9.10;99.90
45983;DHT22;31711;47.158;7.346;2023-03-12T10:21:09;9.40;99.90
45983;DHT22;31711;47.158;7.346;2023-03-12T10:24:03;9.40;99.90
45983;DHT22;31711;47.158;7.346;2023-03-12T10:26:38;9.60;99.90
45983;DHT22;31711;47.158;7.346;2023-03-12T10:31:35;9.80;99.90
45983;DHT22;31711;47.158;7.346;2023-03-12T10:39:50;10.50;99.90
45983;DHT22;31711;47.158;7.346;2023-03-12T10:42:20;10.30;99.90
45983;DHT22;31711;47.158;7.346;2023-03-12T10:44:50;10.50;99.90
45983;DHT22;31711;47.158;7.346;2023-03-12T10:49:48;10.60;99.90
45983;DHT22;31711;47.158;7.346;2023-03-12T10:52:20;10.50;99.90
45983;DHT22;31711;47.158;7.346;2023-03-12T10:54:49;10.40;99.90
45983;DHT22;31711;47.158;7.346;2023-03-12T10:57:16;10.50;99.90
45983;DHT22;31711;47.158;7.346;2023-03-12T10:59:44;10.60;99.90
45983;DHT22;31711;47.158;7.346;2023-03-12T11:02:42;10.70;99.90
45983;DHT22;31711;47.158;7.346;2023-03-12T11:08:21;10.70;99.90
45983;DHT22;31711;47.158;7.346;2023-03-12T11:10:49;10.80;99.90
45983;DHT22;31711;47.158;7.346;2023-03-12T11:13:34;11.00;99.90
45983;DHT22;31711;47.158;7.346;2023-03-12T11:16:02;11.30;99.90
45983;DHT22;31711;47.158;7.346;2023-03-12T11:19:00;11.50;99.90
45983;DHT22;31711;47.158;7.346;2023-03-12T11:21:33;11.90;99.90
45983;DHT22;31711;47.158;7.346;2023-03-12T11:24:13;12.10;99.90
45983;DHT22;31711;47.158;7.346;2023-03-12T11:26:45;12.10;99.90
45983;DHT22;31711;47.158;7.346;2023-03-12T11:29:26;11.90;99.90
45983;DHT22;31711;47.158;7.346;2023-03-12T11:34:25;12.20;99.90
45983;DHT22;31711;47.158;7.346;2023-03-12T11:54:20;12.50;99.90
45983;DHT22;31711;47.158;7.346;2023-03-12T11:56:51;12.80;99.90
45983;DHT22;31711;47.158;7.346;2023-03-12T11:59:30;12.80;99.90
45983;DHT22;31711;47.158;7.346;2023-03-12T12:13:15;13.20;99.90
45983;DHT22;31711;47.158;7.346;2023-03-12T12:19:21;12.60;99.90
45983;DHT22;31711;47.158;7.346;2023-03-12T12:21:44;12.50;99.90
45983;DHT22;31711;47.158;7.346;2023-03-12T12:24:25;12.50;99.90
45983;DHT22;31711;47.158;7.346;2023-03-12T12:38:06;12.50;99.90
45983;DHT22;31711;47.158;7.346;2023-03-12T12:40:48;12.60;99.90
45983;DHT22;31711;47.158;7.346;2023-03-12T12:43:38;12.50;99.90
45983;DHT22;31711;47.158;7.346;2023-03-12T12:46:20;12.40;99.90
45983;DHT22;31711;47.158;7.346;2023-03-12T12:48:51;12.50;99.90
45983;DHT22;31711;47.158;7.346;2023-03-12T12:51:21;12.80;99.90
45983;DHT22;31711;47.158;7.346;2023-03-12T13:01:46;12.20;99.90
45983;DHT22;31711;47.158;7.346;2023-03-12T13:04:22;12.30;99.90
45983;DHT22;31711;47.158;7.346;2023-03-12T13:07:27;12.00;99.90
45983;DHT22;31711;47.158;7.346;2023-03-12T13:09:46;12.20;99.90
45983;DHT22;31711;47.158;7.346;2023-03-12T13:12:26;12.30;99.90
45983;DHT22;31711;47.158;7.346;2023-03-12T13:14:55;12.50;99.90
45983;DHT22;31711;47.158;7.346;2023-03-12T13:17:59;12.50;99.90
45983;DHT22;31711;47.158;7.346;2023-03-12T13:20:16;12.80;99.90
45983;DHT22;31711;47.158;7.346;2023-03-12T13:25:42;12.50;99.90
45983;DHT22;31711;47.158;7.346;2023-03-12T13:31:32;12.20;99.90
45983;DHT22;31711;47.158;7.346;2023-03-12T13:36:49;12.10;99.90
45983;DHT22;31711;47.158;7.346;2023-03-12T13:41:54;12.10;99.90
45983;DHT22;31711;47.158;7.346;2023-03-12T13:49:40;12.20;99.90
45983;DHT22;31711;47.158;7.346;2023-03-12T13:55:13;12.70;99.90
45983;DHT22;31711;47.158;7.346;2023-03-12T13:57:45;12.90;99.90
45983;DHT22;31711;47.158;7.346;2023-03-12T14:00:24;13.00;99.90
45983;DHT22;31711;47.158;7.346;2023-03-12T14:02:55;13.00;99.90
45983;DHT22;31711;47.158;7.346;2023-03-12T14:05:22;13.20;99.90
45983;DHT22;31711;47.158;7.346;2023-03-12T14:16:32;13.50;99.90
45983;DHT22;31711;47.158;7.346;2023-03-12T14:19:03;13.60;99.90
45983;DHT22;31711;47.158;7.346;2023-03-12T14:21:34;13.90;99.90
45983;DHT22;31711;47.158;7.346;2023-03-12T14:24:01;13.90;99.90
45983;DHT22;31711;47.158;7.346;2023-03-12T14:26:32;13.80;99.90
45983;DHT22;31711;47.158;7.346;2023-03-12T14:29:17;13.90;99.90
45983;DHT22;31711;47.158;7.346;2023-03-12T14:31:45;13.80;99.90
45983;DHT22;31711;47.158;7.346;2023-03-12T14:36:45;13.70;99.90
45983;DHT22;31711;47.158;7.346;2023-03-12T14:39:27;13.50;99.90
45983;DHT22;31711;47.158;7.346;2023-03-12T14:42:00;13.10;99.90
45983;DHT22;31711;47.158;7.346;2023-03-12T14:44:30;13.00;99.90
45983;DHT22;31711;47.158;7.346;2023-03-12T14:47:01;13.30;99.90
45983;DHT22;31711;47.158;7.346;2023-03-12T14:49:29;13.20;99.90
45983;DHT22;31711;47.158;7.346;2023-03-12T14:51:56;13.10;99.90
45983;DHT22;31711;47.158;7.346;2023-03-12T14:54:25;13.00;99.90
45983;DHT22;31711;47.158;7.346;2023-03-12T14:56:52;13.10;99.90
45983;DHT22;31711;47.158;7.346;2023-03-12T14:59:28;13.20;99.90
45983;DHT22;31711;47.158;7.346;2023-03-12T15:02:06;13.20;99.90
45983;DHT22;31711;47.158;7.346;2023-03-12T15:04:35;13.30;99.90
45983;DHT22;31711;47.158;7.346;2023-03-12T15:07:03;13.20;99.90
45983;DHT22;31711;47.158;7.346;2023-03-12T15:09:33;13.20;99.90
45983;DHT22;31711;47.158;7.346;2023-03-12T15:12:03;13.10;99.90
45983;DHT22;31711;47.158;7.346;2023-03-12T15:14:34;13.20;99.90
45983;DHT22;31711;47.158;7.346;2023-03-12T15:17:03;13.00;99.90
45983;DHT22;31711;47.158;7.346;2023-03-12T15:19:32;13.20;99.90
45983;DHT22;31711;47.158;7.346;2023-03-12T15:22:00;13.30;99.90
45983;DHT22;31711;47.158;7.346;2023-03-12T15:24:28;13.20;99.90
45983;DHT22;31711;47.158;7.346;2023-03-12T15:26:55;13.30;99.90
45983;DHT22;31711;47.158;7.346;2023-03-12T15:29:25;13.30;99.90
45983;DHT22;31711;47.158;7.346;2023-03-12T15:31:59;13.20;99.90
45983;DHT22;31711;47.158;7.346;2023-03-12T15:34:34;13.20;99.90
45983;DHT22;31711;47.158;7.346;2023-03-12T15:37:48;13.20;99.90
45983;DHT22;31711;47.158;7.346;2023-03-12T15:39:52;13.20;99.90
45983;DHT22;31711;47.158;7.346;2023-03-12T15:42:22;13.40;99.90
45983;DHT22;31711;47.158;7.346;2023-03-12T15:44:55;13.40;99.90
45983;DHT22;31711;47.158;7.346;2023-03-12T15:47:24;13.40;99.90
45983;DHT22;31711;47.158;7.346;2023-03-12T15:49:55;13.30;99.90
45983;DHT22;31711;47.158;7.346;2023-03-12T16:00:20;13.10;99.90
45983;DHT22;31711;47.158;7.346;2023-03-12T16:05:35;13.00;99.90
45983;DHT22;31711;47.158;7.346;2023-03-12T16:10:38;12.90;99.90
45983;DHT22;31711;47.158;7.346;2023-03-12T16:13:04;12.90;99.90
45983;DHT22;31711;47.158;7.346;2023-03-12T16:15:33;12.80;99.90
45983;DHT22;31711;47.158;7.346;2023-03-12T16:18:00;12.70;99.90
45983;DHT22;31711;47.158;7.346;2023-03-12T16:20:27;12.70;99.90
45983;DHT22;31711;47.158;7.346;2023-03-12T16:22:53;12.80;99.90
45983;DHT22;31711;47.158;7.346;2023-03-12T16:25:19;12.80;99.90
45983;DHT22;31711;47.158;7.346;2023-03-12T16:27:54;12.80;99.90
45983;DHT22;31711;47.158;7.346;2023-03-12T16:30:29;12.70;99.90
45983;DHT22;31711;47.158;7.346;2023-03-12T16:32:57;12.60;99.90
45983;DHT22;31711;47.158;7.346;2023-03-12T16:35:23;12.50;99.90
45983;DHT22;31711;47.158;7.346;2023-03-12T16:37:50;12.50;99.90
45983;DHT22;31711;47.158;7.346;2023-03-12T16:40:16;12.50;99.90
45983;DHT22;31711;47.158;7.346;2023-03-12T16:42:45;12.50;99.90
45983;DHT22;31711;47.158;7.346;2023-03-12T16:45:14;12.40;99.90
45983;DHT22;31711;47.158;7.346;2023-03-12T16:47:41;12.30;99.90
45983;DHT22;31711;47.158;7.346;2023-03-12T16:50:20;12.20;99.90
45983;DHT22;31711;47.158;7.346;2023-03-12T16:52:46;12.20;99.90
45983;DHT22;31711;47.158;7.346;2023-03-12T16:55:13;12.10;99.90
45983;DHT22;31711;47.158;7.346;2023-03-12T16:57:45;12.00;99.90
45983;DHT22;31711;47.158;7.346;2023-03-12T17:00:19;11.90;99.90
45983;DHT22;31711;47.158;7.346;2023-03-12T17:02:46;11.70;99.90
45983;DHT22;31711;47.158;7.346;2023-03-12T17:05:13;11.60;99.90
45983;DHT22;31711;47.158;7.346;2023-03-12T17:07:39;11.60;99.90
45983;DHT22;31711;47.158;7.346;2023-03-12T17:10:07;11.50;99.90
45983;DHT22;31711;47.158;7.346;2023-03-12T17:12:38;11.40;99.90
45983;DHT22;31711;47.158;7.346;2023-03-12T17:15:12;11.40;99.90
45983;DHT22;31711;47.158;7.346;2023-03-12T17:17:39;11.30;99.90
45983;DHT22;31711;47.158;7.346;2023-03-12T17:20:06;11.20;99.90
45983;DHT22;31711;47.158;7.346;2023-03-12T17:22:35;11.00;99.90
45983;DHT22;31711;47.158;7.346;2023-03-12T17:25:02;10.90;99.90
45983;DHT22;31711;47.158;7.346;2023-03-12T17:27:28;10.60;99.90
45983;DHT22;31711;47.158;7.346;2023-03-12T17:29:54;10.50;99.90
45983;DHT22;31711;47.158;7.346;2023-03-12T17:32:20;10.40;99.90
45983;DHT22;31711;47.158;7.346;2023-03-12T17:34:46;10.30;99.90
45983;DHT22;31711;47.158;7.346;2023-03-12T17:37:11;10.30;99.90
45983;DHT22;31711;47.158;7.346;2023-03-12T17:39:37;10.20;99.90
45983;DHT22;31711;47.158;7.346;2023-03-12T17:42:03;10.20;99.90
45983;DHT22;31711;47.158;7.346;2023-03-12T17:44:33;10.10;99.90
45983;DHT22;31711;47.158;7.346;2023-03-12T17:47:00;10.10;99.90
45983;DHT22;31711;47.158;7.346;2023-03-12T17:49:27;10.10;99.90
45983;DHT22;31711;47.158;7.346;2023-03-12T17:51:54;10.00;99.90
45983;DHT22;31711;47.158;7.346;2023-03-12T17:54:20;9.90;99.90
45983;DHT22;31711;47.158;7.346;2023-03-12T17:56:47;9.90;99.90
45983;DHT22;31711;47.158;7.346;2023-03-12T17:59:13;9.80;99.90